Time;durP1;ratioP1;P1;durP2;ratioP2;P2;SDS_P1;SDS_P2;PMS_P1;PMS_P2;Temp;Humidity;BMP_temperature;BMP_pressure;BME280_temperature;BME280_humidity;BME280_pressure;Samples;Min_cycle;Max_cycle;Signal;HPM_P1;HPM_P2
2021/06/05 00:01:55;;;;;;;12.37;7.37;;;;;;;11.28;77.19;95204.77;1721740;82;21010;-53
2021/06/05 00:04:22;;;;;;;13.70;8.03;;;;;;;11.23;77.66;95206.10;1722539;83;20990;-54
2021/06/05 00:06:50;;;;;;;10.43;7.92;;;;;;;11.19;77.70;95202.66;1722873;83;21034;-54
2021/06/05 00:09:16;;;;;;;16.37;8.13;;;;;;;11.15;77.57;95213.02;1722820;83;21085;-54
2021/06/05 00:11:44;;;;;;;10.72;8.53;;;;;;;11.08;77.63;95208.33;1722542;83;21455;-54
2021/06/05 00:14:12;;;;;;;18.50;9.08;;;;;;;11.02;78.12;95204.58;1722429;83;20939;-55
2021/06/05 00:16:43;;;;;;;17.30;7.10;;;;;;;10.97;78.46;95203.76;1722738;83;20950;-54
2021/06/05 00:19:13;;;;;;;12.63;8.03;;;;;;;10.94;78.90;95204.61;1722737;83;20983;-53
2021/06/05 00:21:40;;;;;;;12.23;8.03;;;;;;;10.92;79.04;95206.44;1722474;83;21053;-54
2021/06/05 00:24:08;;;;;;;15.45;7.70;;;;;;;10.88;79.00;95198.90;1722534;83;21130;-54
2021/06/05 00:26:36;;;;;;;11.55;7.75;;;;;;;10.83;78.97;95204.92;1722540;83;21822;-55
2021/06/05 00:29:03;;;;;;;13.50;7.20;;;;;;;10.78;78.88;95201.34;1722575;83;21486;-54
2021/06/05 00:31:30;;;;;;;13.48;7.42;;;;;;;10.76;78.69;95205.14;1722634;83;21467;-54
2021/06/05 00:33:57;;;;;;;11.28;6.83;;;;;;;10.73;78.68;95202.48;1722567;83;21006;-55
2021/06/05 00:36:24;;;;;;;13.75;7.35;;;;;;;10.73;78.68;95197.59;1722556;83;21086;-55
2021/06/05 00:38:53;;;;;;;17.25;7.15;;;;;;;10.70;78.65;95205.34;1722540;83;20943;-55
2021/06/05 00:41:21;;;;;;;20.52;7.95;;;;;;;10.71;78.88;95200.02;1722569;83;20959;-54
2021/06/05 00:43:50;;;;;;;11.10;6.47;;;;;;;10.73;78.83;95197.76;1722683;81;20947;-54
2021/06/05 00:46:20;;;;;;;9.30;6.40;;;;;;;10.73;78.53;95193.47;1722593;83;21006;-54
2021/06/05 00:48:47;;;;;;;14.00;6.95;;;;;;;10.69;78.43;95193.56;1722610;83;21118;-55
2021/06/05 00:51:14;;;;;;;17.98;8.38;;;;;;;10.67;78.59;95189.69;1722646;83;20954;-54
2021/06/05 00:53:44;;;;;;;11.90;7.62;;;;;;;10.63;78.85;95196.69;1722623;83;20875;-54
2021/06/05 00:56:13;;;;;;;14.50;8.90;;;;;;;10.63;79.42;95197.28;1722632;83;21045;-54
2021/06/05 00:58:41;;;;;;;20.65;7.85;;;;;;;10.65;79.39;95190.14;1722709;83;20958;-54
2021/06/05 01:01:16;;;;;;;12.13;7.83;;;;;;;10.67;79.35;95188.31;1722548;82;21060;-54
2021/06/05 01:03:44;;;;;;;12.13;8.18;;;;;;;10.70;79.37;95192.97;1722278;83;20959;-53
2021/06/05 01:06:23;;;;;;;15.63;8.48;;;;;;;10.71;79.38;95188.38;1704332;83;21015;-54
2021/06/05 01:09:09;;;;;;;8.45;7.60;;;;;;;10.71;79.36;95187.62;1722576;83;20959;-55
2021/06/05 01:11:53;;;;;;;9.28;7.30;;;;;;;10.72;79.40;95189.93;1722682;83;21042;-54
2021/06/05 01:14:38;;;;;;;10.35;7.42;;;;;;;10.73;79.46;95186.75;1722696;83;21506;-53
2021/06/05 01:17:12;;;;;;;10.72;7.35;;;;;;;10.79;79.39;95198.00;1704925;83;21411;-54
2021/06/05 01:19:57;;;;;;;8.90;7.95;;;;;;;10.82;79.11;95182.73;1722689;83;20979;-54
2021/06/05 01:22:47;;;;;;;10.50;7.47;;;;;;;10.80;79.14;95183.78;1722716;82;21423;-55
2021/06/05 01:25:53;;;;;;;10.30;7.37;;;;;;;10.79;79.12;95180.87;1722581;83;21029;-55
2021/06/05 01:28:31;;;;;;;11.43;6.95;;;;;;;10.73;79.10;95177.13;1722584;83;21157;-54
2021/06/05 01:31:01;;;;;;;13.03;7.80;;;;;;;10.63;79.37;95173.30;1722792;83;20990;-54
2021/06/05 01:33:31;;;;;;;8.08;6.35;;;;;;;10.60;79.59;95173.39;1704481;83;21097;-55
2021/06/05 01:35:59;;;;;;;9.63;6.53;;;;;;;10.57;79.65;95171.52;1704794;83;21071;-53
2021/06/05 01:38:28;;;;;;;9.75;7.05;;;;;;;10.52;79.55;95171.45;1722650;83;21036;-54
2021/06/05 01:40:55;;;;;;;14.98;7.72;;;;;;;10.42;79.76;95168.41;1704622;83;21755;-54
2021/06/05 01:43:26;;;;;;;14.18;9.05;;;;;;;10.34;79.97;95175.91;1722584;83;20934;-54
2021/06/05 01:45:54;;;;;;;12.60;7.30;;;;;;;10.29;80.15;95178.58;1722958;83;21449;-55
2021/06/05 01:48:24;;;;;;;8.60;6.47;;;;;;;10.26;80.06;95176.70;1722703;83;21426;-54
2021/06/05 01:50:51;;;;;;;8.70;6.95;;;;;;;10.22;80.11;95176.63;1704576;83;21478;-54
2021/06/05 01:53:25;;;;;;;8.78;7.40;;;;;;;10.13;80.37;95177.25;1704267;83;21478;-54
2021/06/05 01:56:09;;;;;;;11.22;7.58;;;;;;;10.10;80.59;95182.25;1722522;83;20947;-54
2021/06/05 01:58:40;;;;;;;12.18;8.10;;;;;;;10.11;80.85;95174.75;1722817;83;21081;-54
2021/06/05 02:01:10;;;;;;;11.50;7.55;;;;;;;10.10;80.80;95172.62;1722235;83;21498;-54
2021/06/05 02:03:40;;;;;;;9.15;7.33;;;;;;;10.06;80.83;95162.33;1722594;83;21030;-54
2021/06/05 02:06:11;;;;;;;9.10;6.80;;;;;;;10.06;80.84;95172.54;1704929;83;21160;-54
2021/06/05 02:08:38;;;;;;;9.40;6.85;;;;;;;10.04;80.83;95163.37;1722701;83;21038;-54
2021/06/05 02:11:09;;;;;;;11.90;6.92;;;;;;;10.00;80.79;95166.00;1722530;83;20966;-54
2021/06/05 02:13:49;;;;;;;9.73;6.92;;;;;;;9.97;80.82;95171.00;1704501;83;20981;-54
2021/06/05 02:16:35;;;;;;;11.25;7.03;;;;;;;9.91;80.95;95164.46;1722849;82;21062;-54
2021/06/05 02:19:11;;;;;;;8.35;6.58;;;;;;;9.87;81.04;95170.66;1722540;83;21152;-54
2021/06/05 02:21:42;;;;;;;11.33;7.12;;;;;;;9.85;81.01;95166.20;1722678;83;20987;-55
2021/06/05 02:24:21;;;;;;;13.28;7.00;;;;;;;9.80;80.67;95166.73;1722561;83;20994;-54
2021/06/05 02:26:47;;;;;;;11.60;6.67;;;;;;;9.76;80.64;95164.69;1722696;83;21549;-54
2021/06/05 02:29:17;;;;;;;8.25;7.20;;;;;;;9.67;80.54;95162.55;1722638;83;20935;-54
2021/06/05 02:31:45;;;;;;;7.55;6.50;;;;;;;9.62;80.55;95173.27;1722519;81;20906;-54
2021/06/05 02:34:16;;;;;;;9.48;6.50;;;;;;;9.57;80.70;95161.41;1722472;83;20959;-54
2021/06/05 02:36:45;;;;;;;12.82;6.97;;;;;;;9.56;80.86;95157.91;1722545;83;20947;-54
2021/06/05 02:39:14;;;;;;;7.35;6.60;;;;;;;9.56;80.65;95165.36;1703961;83;20942;-54
2021/06/05 02:41:45;;;;;;;9.80;7.78;;;;;;;9.56;80.87;95166.14;1722666;81;20962;-54
2021/06/05 02:44:15;;;;;;;9.58;7.83;;;;;;;9.54;80.79;95165.80;1722461;83;21048;-55
2021/06/05 02:46:42;;;;;;;8.93;7.08;;;;;;;9.56;81.29;95161.23;1722420;83;20935;-55
2021/06/05 02:49:23;;;;;;;10.90;6.97;;;;;;;9.58;81.31;95172.59;1722583;83;20986;-55
2021/06/05 02:51:56;;;;;;;9.15;7.47;;;;;;;9.59;81.19;95161.16;1722525;83;21006;-54
2021/06/05 02:54:25;;;;;;;15.18;7.53;;;;;;;9.58;81.29;95155.50;1722113;83;20943;-55
2021/06/05 02:56:53;;;;;;;8.55;6.62;;;;;;;9.58;81.47;95155.50;1722447;83;21111;-54
2021/06/05 02:59:21;;;;;;;17.52;7.65;;;;;;;9.59;81.17;95167.27;1722537;83;21042;-54
2021/06/05 03:01:50;;;;;;;11.15;6.45;;;;;;;9.57;81.09;95161.41;1724668;82;21038;-54
2021/06/05 03:04:18;;;;;;;8.95;6.15;;;;;;;9.54;81.00;95156.78;1727645;81;21034;-53
2021/06/05 03:06:45;;;;;;;9.38;6.40;;;;;;;9.50;80.97;95165.12;1727669;81;20951;-54
2021/06/05 03:09:15;;;;;;;10.32;7.20;;;;;;;9.49;80.97;95161.42;1727601;81;21088;-55
2021/06/05 03:11:47;;;;;;;9.80;6.90;;;;;;;9.48;81.05;95163.41;1727703;83;20954;-53
2021/06/05 03:14:15;;;;;;;58.10;9.18;;;;;;;9.52;81.26;95165.47;1727817;83;20935;-54
2021/06/05 03:16:43;;;;;;;25.17;8.25;;;;;;;9.56;81.21;95155.16;1727736;81;20956;-56
2021/06/05 03:19:10;;;;;;;16.20;7.08;;;;;;;9.58;81.42;95156.11;1727948;82;21006;-54
2021/06/05 03:21:37;;;;;;;13.30;7.47;;;;;;;9.65;81.53;95160.05;1727597;83;21119;-54
2021/06/05 03:24:21;;;;;;;8.55;7.22;;;;;;;9.71;81.52;95156.94;1727518;82;20918;-54
2021/06/05 03:26:50;;;;;;;14.43;8.98;;;;;;;9.70;81.23;95157.55;1727630;82;21010;-55
2021/06/05 03:29:18;;;;;;;10.48;7.87;;;;;;;9.67;81.02;95163.13;1711462;83;20982;-53
2021/06/05 03:31:46;;;;;;;39.30;9.90;;;;;;;9.64;80.92;95167.50;1727025;82;21077;-56
2021/06/05 03:34:13;;;;;;;19.37;7.92;;;;;;;9.64;81.03;95155.76;1727608;83;21162;-55
2021/06/05 03:36:40;;;;;;;23.75;8.08;;;;;;;9.71;81.05;95161.06;1727959;83;21415;-53
2021/06/05 03:39:09;;;;;;;12.78;7.72;;;;;;;9.81;81.06;95154.53;1727657;83;20998;-55
2021/06/05 03:41:40;;;;;;;10.75;7.25;;;;;;;9.92;81.10;95160.50;1727477;82;21050;-54
2021/06/05 03:44:07;;;;;;;6.67;6.08;;;;;;;9.99;80.99;95158.97;1711194;83;21096;-53
2021/06/05 03:46:34;;;;;;;8.75;6.40;;;;;;;10.06;80.84;95154.08;1727566;81;21136;-54
2021/06/05 03:49:05;;;;;;;10.03;6.45;;;;;;;10.18;80.83;95159.46;1727604;81;21104;-54
2021/06/05 03:51:33;;;;;;;7.17;6.35;;;;;;;10.32;80.32;95156.33;1727729;83;20954;-54
2021/06/05 03:54:00;;;;;;;15.53;7.90;;;;;;;10.45;79.86;95151.03;1727619;81;20975;-54
2021/06/05 03:56:27;;;;;;;16.00;7.85;;;;;;;10.53;79.64;95154.34;1727665;83;20994;-54
2021/06/05 03:58:54;;;;;;;9.95;8.18;;;;;;;10.57;79.20;95157.14;1727707;83;21785;-53
2021/06/05 04:01:24;;;;;;;11.50;7.12;;;;;;;10.62;79.08;95150.34;1726712;81;21108;-54
2021/06/05 04:03:51;;;;;;;12.07;6.58;;;;;;;10.69;78.95;95146.02;1722939;83;20955;-54
2021/06/05 04:06:21;;;;;;;8.73;6.20;;;;;;;10.77;78.88;95148.13;1722424;83;21549;-54
2021/06/05 04:08:51;;;;;;;13.38;7.10;;;;;;;10.84;78.57;95147.28;1722490;83;21585;-54
2021/06/05 04:11:18;;;;;;;13.13;6.85;;;;;;;10.88;78.58;95138.94;1722454;83;21063;-54
2021/06/05 04:13:46;;;;;;;12.63;6.70;;;;;;;10.95;78.53;95149.12;1722571;83;21053;-55
2021/06/05 04:16:14;;;;;;;10.20;6.15;;;;;;;10.98;78.26;95142.73;1722774;83;20955;-55
2021/06/05 04:18:41;;;;;;;9.40;6.90;;;;;;;11.04;78.13;95141.00;1722975;83;21451;-56
2021/06/05 04:21:11;;;;;;;11.93;7.42;;;;;;;11.12;77.85;95142.31;1722607;81;21018;-54
2021/06/05 04:23:38;;;;;;;8.30;6.72;;;;;;;11.14;78.12;95150.89;1722870;83;21106;-54
2021/06/05 04:26:05;;;;;;;13.93;7.95;;;;;;;11.20;77.62;95135.35;1722592;83;20954;-55
2021/06/05 04:28:33;;;;;;;11.60;7.33;;;;;;;11.20;77.25;95140.86;1722504;83;21628;-54
2021/06/05 04:30:59;;;;;;;14.05;7.70;;;;;;;11.17;77.26;95131.35;1722594;82;21006;-53
2021/06/05 04:33:28;;;;;;;18.12;7.37;;;;;;;11.15;76.94;95135.91;1722901;83;21582;-54
2021/06/05 04:35:57;;;;;;;16.10;7.85;;;;;;;11.16;76.53;95130.57;1722696;83;21108;-55
2021/06/05 04:38:23;;;;;;;14.83;7.67;;;;;;;11.19;76.52;95131.06;1722820;83;20998;-55
2021/06/05 04:40:51;;;;;;;10.03;7.33;;;;;;;11.25;76.63;95124.40;1722735;83;21050;-54
2021/06/05 04:43:19;;;;;;;11.28;6.92;;;;;;;11.29;75.93;95125.83;1722930;83;21082;-55
2021/06/05 04:45:46;;;;;;;11.08;6.65;;;;;;;11.36;75.63;95123.47;1722790;83;21084;-54
2021/06/05 04:48:13;;;;;;;12.73;7.20;;;;;;;11.40;75.34;95126.27;1722673;83;21045;-55
2021/06/05 04:50:40;;;;;;;14.35;7.53;;;;;;;11.44;75.01;95117.28;1722703;83;21002;-55
2021/06/05 04:53:07;;;;;;;22.20;7.85;;;;;;;11.49;74.57;95118.09;1722556;81;21022;-55
2021/06/05 04:55:34;;;;;;;17.85;7.22;;;;;;;11.55;74.34;95115.55;1722706;83;21041;-54
2021/06/05 04:58:01;;;;;;;11.68;8.08;;;;;;;11.58;74.25;95116.85;1722717;83;20998;-55
2021/06/05 05:00:38;;;;;;;40.78;9.38;;;;;;;11.62;74.16;95116.12;1722547;83;21157;-56
2021/06/05 05:03:05;;;;;;;16.90;8.40;;;;;;;11.64;73.86;95109.55;1726110;82;20943;-54
2021/06/05 05:05:33;;;;;;;18.17;7.50;;;;;;;11.69;73.39;95115.11;1727897;81;20951;-55
2021/06/05 05:08:00;;;;;;;14.45;7.67;;;;;;;11.67;73.33;95110.63;1727730;83;20998;-53
2021/06/05 05:10:33;;;;;;;17.27;8.13;;;;;;;11.75;73.50;95109.95;1727812;83;20951;-55
2021/06/05 05:13:00;;;;;;;19.37;8.15;;;;;;;11.87;73.56;95100.13;1728218;83;21070;-56
2021/06/05 05:15:26;;;;;;;16.73;7.62;;;;;;;11.96;73.61;95104.32;1727742;82;21527;-55
2021/06/05 05:17:53;;;;;;;14.87;7.35;;;;;;;11.98;73.57;95097.75;1727970;83;20974;-53
2021/06/05 05:20:28;;;;;;;18.45;7.20;;;;;;;12.00;73.06;95103.58;1727742;83;21431;-55
2021/06/05 05:22:54;;;;;;;10.58;7.00;;;;;;;12.01;72.64;95102.36;1727990;83;20934;-56
2021/06/05 05:25:21;;;;;;;12.98;7.37;;;;;;;12.05;72.24;95097.52;1727897;81;21120;-56
2021/06/05 05:27:48;;;;;;;17.55;6.65;;;;;;;12.10;72.02;95097.69;1727689;82;20958;-58
2021/06/05 05:30:24;;;;;;;27.32;7.92;;;;;;;12.19;72.04;95092.25;1727850;83;20963;-56
2021/06/05 05:32:51;;;;;;;12.98;7.95;;;;;;;12.25;71.52;95082.17;1727882;81;21411;-55
2021/06/05 05:35:19;;;;;;;16.90;7.83;;;;;;;12.28;71.16;95080.52;1727802;83;20946;-58
2021/06/05 05:37:47;;;;;;;13.83;8.28;;;;;;;12.31;70.92;95083.16;1727792;83;21093;-57
2021/06/05 05:40:15;;;;;;;9.50;7.58;;;;;;;12.34;70.72;95078.11;1727737;81;20954;-56
2021/06/05 05:42:42;;;;;;;15.75;7.05;;;;;;;12.36;70.72;95075.67;1727875;82;21386;-53
2021/06/05 05:45:11;;;;;;;11.48;6.22;;;;;;;12.41;70.32;95075.70;1727654;83;20983;-56
2021/06/05 05:47:37;;;;;;;9.83;6.85;;;;;;;12.40;70.15;95069.41;1727979;82;21569;-54
2021/06/05 05:50:06;;;;;;;15.05;6.95;;;;;;;12.40;69.99;95070.00;1727759;81;21227;-54
2021/06/05 05:52:33;;;;;;;9.23;6.30;;;;;;;12.44;70.03;95070.03;1727851;83;21454;-56
2021/06/05 05:55:02;;;;;;;18.60;7.72;;;;;;;12.53;69.72;95065.97;1727815;83;21115;-55
2021/06/05 05:57:29;;;;;;;15.13;7.22;;;;;;;12.58;69.44;95069.52;1727909;83;21065;-55
2021/06/05 05:59:55;;;;;;;17.92;7.53;;;;;;;12.64;69.09;95059.41;1727692;81;21502;-55
2021/06/05 06:02:22;;;;;;;13.35;7.40;;;;;;;12.67;69.06;95063.43;1724095;83;21143;-55
2021/06/05 06:04:48;;;;;;;12.45;5.92;;;;;;;12.73;68.98;95064.37;1714694;83;21108;-54
2021/06/05 06:07:17;;;;;;;45.05;7.87;;;;;;;12.84;68.91;95059.81;1714872;83;21042;-55
2021/06/05 06:09:43;;;;;;;27.00;7.70;;;;;;;12.96;68.88;95064.50;1715136;83;20963;-56
2021/06/05 06:12:11;;;;;;;9.83;7.60;;;;;;;13.13;69.01;95063.03;1715054;83;20994;-58
2021/06/05 06:14:38;;;;;;;16.75;7.20;;;;;;;13.38;68.72;95057.27;1714720;82;21135;-55
2021/06/05 06:17:06;;;;;;;15.60;7.28;;;;;;;13.63;67.86;95056.39;1714712;83;20935;-56
2021/06/05 06:19:32;;;;;;;14.78;6.72;;;;;;;13.88;67.47;95059.48;1714772;83;20979;-55
2021/06/05 06:21:59;;;;;;;9.10;6.28;;;;;;;14.09;66.63;95057.97;1715188;83;21530;-56
2021/06/05 06:24:25;;;;;;;16.65;6.60;;;;;;;14.24;65.61;95056.74;1705021;83;20966;-55
2021/06/05 06:26:52;;;;;;;9.98;5.75;;;;;;;14.35;64.96;95051.52;1714394;83;21129;-56
2021/06/05 06:29:28;;;;;;;9.18;5.55;;;;;;;14.45;64.48;95049.66;1713808;83;22273;-59
2021/06/05 06:31:49;;;;;;;9.53;5.87;;;;;;;14.56;64.07;95047.93;1714228;82;21050;-55
2021/06/05 06:34:16;;;;;;;10.55;5.40;;;;;;;14.70;63.70;95044.52;1714772;83;21508;-55
2021/06/05 06:36:45;;;;;;;7.42;5.10;;;;;;;14.86;63.29;95050.30;1714784;82;21006;-56
2021/06/05 06:39:13;;;;;;;8.45;5.35;;;;;;;15.02;62.73;95049.30;1714714;83;21037;-56
2021/06/05 06:41:42;;;;;;;10.40;5.45;;;;;;;15.15;61.97;95040.17;1714675;82;21038;-55
2021/06/05 06:44:09;;;;;;;7.75;5.90;;;;;;;15.29;61.26;95042.30;1714701;83;21002;-59
2021/06/05 06:46:45;;;;;;;6.70;5.42;;;;;;;15.40;61.25;95030.05;1714646;82;20943;-57
2021/06/05 06:49:14;;;;;;;7.65;4.90;;;;;;;15.52;60.83;95022.77;1714692;83;20979;-57
2021/06/05 06:51:41;;;;;;;15.72;5.45;;;;;;;15.69;60.58;95017.70;1714836;83;21926;-56
2021/06/05 06:54:09;;;;;;;9.55;5.50;;;;;;;15.85;60.49;95015.89;1714623;83;20990;-57
2021/06/05 06:56:35;;;;;;;10.90;6.35;;;;;;;16.02;60.12;95012.82;1714914;83;21002;-55
2021/06/05 06:59:04;;;;;;;14.28;5.50;;;;;;;16.18;60.06;95005.44;1714612;83;21097;-59
2021/06/05 07:01:31;;;;;;;13.38;5.37;;;;;;;16.31;60.32;95002.52;1714948;82;20995;-58
2021/06/05 07:03:57;;;;;;;8.50;6.47;;;;;;;16.38;60.05;95000.02;1714525;83;21798;-56
2021/06/05 07:06:25;;;;;;;19.82;8.08;;;;;;;16.39;58.99;95001.55;1714856;82;20950;-56
2021/06/05 07:08:53;;;;;;;9.53;5.85;;;;;;;16.39;58.78;95002.30;1714681;83;21428;-56
2021/06/05 07:11:28;;;;;;;8.20;5.08;;;;;;;16.48;58.93;94989.73;1714912;83;21456;-58
2021/06/05 07:13:55;;;;;;;11.08;5.10;;;;;;;16.69;58.40;94991.34;1714692;83;21010;-56
2021/06/05 07:16:23;;;;;;;9.05;5.37;;;;;;;16.92;57.19;94993.86;1714946;83;21110;-57
2021/06/05 07:18:51;;;;;;;13.15;5.58;;;;;;;17.12;57.27;94987.72;1714579;82;21423;-58
2021/06/05 07:21:18;;;;;;;6.70;4.30;;;;;;;17.29;57.62;94987.97;1714616;82;21014;-60
2021/06/05 07:23:46;;;;;;;9.63;5.28;;;;;;;17.45;56.01;94981.91;1715041;82;21022;-57
2021/06/05 07:26:16;;;;;;;13.10;4.72;;;;;;;17.56;55.90;94991.16;1715013;83;21426;-59
2021/06/05 07:28:47;;;;;;;5.78;4.72;;;;;;;17.70;56.71;94985.38;1714735;83;21134;-59
2021/06/05 07:31:17;;;;;;;7.50;4.60;;;;;;;17.80;56.23;94983.36;1714916;83;20967;-56
2021/06/05 07:33:45;;;;;;;7.35;5.20;;;;;;;17.88;55.74;94980.92;1714656;83;20990;-55
2021/06/05 07:36:20;;;;;;;17.70;4.85;;;;;;;17.95;55.72;94977.09;1714868;83;21419;-59
2021/06/05 07:38:46;;;;;;;11.38;5.62;;;;;;;18.08;56.17;94972.55;1704932;83;21073;-56
2021/06/05 07:41:13;;;;;;;6.72;4.97;;;;;;;18.31;55.26;94965.36;1714882;83;21094;-55
2021/06/05 07:43:41;;;;;;;6.70;4.78;;;;;;;18.54;54.93;94962.30;1714535;83;20976;-55
2021/06/05 07:46:08;;;;;;;7.80;5.53;;;;;;;18.71;54.40;94959.02;1714606;82;20995;-56
2021/06/05 07:48:36;;;;;;;10.85;4.83;;;;;;;18.81;54.33;94951.99;1714669;83;21089;-56
2021/06/05 07:51:05;;;;;;;8.43;4.40;;;;;;;18.92;52.73;94949.30;1714730;83;21427;-56
2021/06/05 07:53:32;;;;;;;7.90;4.15;;;;;;;19.04;52.84;94955.08;1714728;83;21219;-57
2021/06/05 07:56:01;;;;;;;8.20;4.12;;;;;;;19.18;53.85;94945.82;1714624;83;20975;-58
2021/06/05 07:58:27;;;;;;;5.08;4.30;;;;;;;19.30;52.05;94937.66;1714677;82;21094;-57
2021/06/05 08:00:54;;;;;;;7.10;4.62;;;;;;;19.45;51.20;94935.47;1714595;83;21080;-57
2021/06/05 08:03:20;;;;;;;4.20;3.80;;;;;;;19.63;51.26;94930.86;1714564;83;21000;-57
2021/06/05 08:05:48;;;;;;;12.23;5.20;;;;;;;19.85;50.60;94923.95;1714729;82;21148;-55
2021/06/05 08:08:15;;;;;;;11.63;4.30;;;;;;;20.04;49.82;94922.27;1714508;83;21088;-56
2021/06/05 08:10:43;;;;;;;9.78;5.15;;;;;;;20.25;49.99;94909.61;1714674;83;20950;-59
2021/06/05 08:13:12;;;;;;;5.85;4.05;;;;;;;20.50;50.42;94913.58;1714676;83;21419;-57
2021/06/05 08:15:44;;;;;;;8.23;5.20;;;;;;;20.73;48.68;94917.16;1714756;83;21518;-57
2021/06/05 08:18:12;;;;;;;9.25;4.08;;;;;;;20.90;48.16;94915.14;1714984;82;27120;-57
2021/06/05 08:20:44;;;;;;;7.83;3.80;;;;;;;21.02;47.88;94909.02;1714553;83;20970;-56
2021/06/05 08:23:13;;;;;;;11.43;4.10;;;;;;;21.02;47.23;94897.83;1714650;82;21103;-55
2021/06/05 08:25:39;;;;;;;4.50;3.55;;;;;;;21.04;48.02;94902.89;1714609;82;21042;-56
2021/06/05 08:28:08;;;;;;;4.58;3.00;;;;;;;21.06;47.63;94904.55;1714565;83;21348;-57
2021/06/05 08:30:44;;;;;;;11.78;3.15;;;;;;;21.12;45.97;94897.67;1714610;83;21212;-57
2021/06/05 08:33:11;;;;;;;7.83;3.62;;;;;;;21.23;43.24;94894.08;1714626;83;21042;-55
2021/06/05 08:35:38;;;;;;;7.05;2.90;;;;;;;21.36;42.87;94898.51;1714704;82;21002;-56
2021/06/05 08:38:06;;;;;;;7.17;3.17;;;;;;;21.56;42.32;94894.77;1714670;83;21071;-60
2021/06/05 08:40:49;;;;;;;6.35;2.52;;;;;;;21.74;42.80;94895.61;1714877;82;21415;-57
2021/06/05 08:43:24;;;;;;;5.97;2.90;;;;;;;21.92;40.94;94895.02;1714638;83;21291;-56
2021/06/05 08:45:51;;;;;;;4.65;2.83;;;;;;;22.06;40.27;94891.09;1714886;83;21034;-57
2021/06/05 08:48:20;;;;;;;4.85;2.40;;;;;;;22.15;39.02;94891.55;1714572;82;21635;-57
2021/06/05 08:50:46;;;;;;;3.25;2.33;;;;;;;22.20;37.05;94885.80;1711578;82;21127;-58
2021/06/05 08:53:23;;;;;;;4.60;2.83;;;;;;;22.25;36.63;94894.18;1681745;83;21573;-58
2021/06/05 08:55:58;;;;;;;9.43;2.98;;;;;;;22.27;37.58;94888.81;1709333;83;21766;-57
2021/06/05 08:58:36;;;;;;;4.62;3.10;;;;;;;22.24;36.79;94891.26;1714662;82;20994;-60
2021/06/05 09:01:20;;;;;;;4.65;2.30;;;;;;;22.20;35.90;94894.20;1715198;82;21006;-60
2021/06/05 09:03:51;;;;;;;11.22;3.15;;;;;;;22.10;36.12;94888.80;1720741;83;20976;-59
2021/06/05 09:06:34;;;;;;;6.30;2.83;;;;;;;22.03;36.20;94891.52;1725976;81;21616;-61
2021/06/05 09:09:06;;;;;;;7.97;3.40;;;;;;;21.96;36.65;94884.92;1717382;83;21209;-56
2021/06/05 09:11:33;;;;;;;5.45;2.60;;;;;;;;;;1693150;83;20955;-60
2021/06/05 09:14:00;;;;;;;10.75;3.17;;;;;;;21.86;35.66;94885.11;1692765;84;21116;-63
2021/06/05 09:16:46;;;;;;;4.47;2.40;;;;;;;21.84;35.73;94880.67;1706481;83;21008;-63
2021/06/05 09:19:16;;;;;;;6.50;5.28;;;;;;;21.81;35.83;94882.45;1704220;82;21074;-63
2021/06/05 09:21:50;;;;;;;30.88;5.72;;;;;;;21.76;37.33;94882.47;1692855;84;21421;-62
2021/06/05 09:24:33;;;;;;;12.07;4.70;;;;;;;21.70;37.28;94881.75;1692815;84;21102;-63
2021/06/05 09:27:21;;;;;;;11.93;5.58;;;;;;;21.64;37.38;94888.77;1692879;84;20993;-62
2021/06/05 09:30:07;;;;;;;6.95;4.67;;;;;;;21.58;38.03;94882.41;1705010;83;21030;-64
2021/06/05 09:32:37;;;;;;;4.87;3.30;;;;;;;21.49;37.91;94875.68;1689503;84;21039;-60
2021/06/05 09:35:14;;;;;;;9.70;3.75;;;;;;;21.41;40.20;94882.33;1697022;84;21124;-63
2021/06/05 09:37:46;;;;;;;3.70;3.40;;;;;;;21.30;38.58;94875.38;1697046;83;21041;-60
2021/06/05 09:40:26;;;;;;;7.78;3.22;;;;;;;21.15;38.89;94881.90;1699812;83;20961;-63
2021/06/05 09:43:14;;;;;;;15.98;6.00;;;;;;;21.02;39.53;94877.47;1692745;83;20994;-63
2021/06/05 09:45:44;;;;;;;3.20;2.90;;;;;;;20.90;40.51;94875.33;1690351;84;21001;-62
2021/06/05 09:48:32;;;;;;;7.97;3.85;;;;;;;20.81;41.08;94876.20;1692540;84;21971;-63
2021/06/05 09:51:03;;;;;;;7.30;3.60;;;;;;;20.72;40.96;94882.07;1692722;83;21048;-62
2021/06/05 09:53:37;;;;;;;3.80;3.40;;;;;;;20.62;40.42;94883.59;1692965;83;21119;-62
2021/06/05 09:56:15;;;;;;;5.08;4.37;;;;;;;20.51;40.65;94877.98;1692080;84;20973;-63
2021/06/05 09:58:45;;;;;;;8.55;5.33;;;;;;;20.41;40.94;94886.51;1692778;83;20959;-56
2021/06/05 10:01:25;;;;;;;6.22;4.50;;;;;;;20.32;40.65;94888.14;1692744;83;21121;-57
2021/06/05 10:03:59;;;;;;;10.20;3.52;;;;;;;20.24;41.66;94896.91;1690812;83;21448;-57
2021/06/05 10:06:52;;;;;;;15.40;3.75;;;;;;;20.15;41.67;94902.72;1683117;85;20949;-59
2021/06/05 10:09:30;;;;;;;12.40;4.03;;;;;;;20.02;42.69;94898.27;1687647;85;21094;-56
2021/06/05 10:12:23;;;;;;;15.98;4.53;;;;;;;19.90;43.48;94911.28;1687605;83;21029;-57
2021/06/05 10:15:13;;;;;;;7.47;3.17;;;;;;;19.76;44.01;94908.80;1687515;85;21184;-56
2021/06/05 10:17:57;;;;;;;4.92;3.58;;;;;;;19.66;44.43;94915.89;1687473;83;21002;-57
2021/06/05 10:21:03;;;;;;;5.00;3.98;;;;;;;19.62;44.85;94907.00;1712341;83;21113;-56
2021/06/05 10:23:33;;;;;;;11.28;3.70;;;;;;;19.56;44.63;94907.59;1722466;82;21544;-57
2021/06/05 10:26:30;;;;;;;13.78;4.78;;;;;;;19.51;45.27;94910.35;1722428;82;21010;-57
2021/06/05 10:29:02;;;;;;;10.40;4.30;;;;;;;19.51;45.83;94909.73;1718463;83;21538;-57
2021/06/05 10:31:29;;;;;;;8.83;3.80;;;;;;;19.50;46.13;94920.77;1722472;83;21010;-56
2021/06/05 10:34:09;;;;;;;18.62;5.35;;;;;;;19.48;46.09;94919.11;1709935;83;20958;-56
2021/06/05 10:36:47;;;;;;;15.13;5.67;;;;;;;19.46;46.50;94919.47;1701757;83;20977;-55
2021/06/05 10:39:18;;;;;;;10.45;4.83;;;;;;;19.41;46.85;94915.38;1704715;82;21445;-58
2021/06/05 10:41:51;;;;;;;14.18;4.72;;;;;;;19.45;47.12;94915.93;1687628;85;21450;-59
2021/06/05 10:44:18;;;;;;;12.82;5.42;;;;;;;19.52;46.63;94917.48;1687427;85;21125;-57
2021/06/05 10:47:00;;;;;;;20.77;5.72;;;;;;;19.57;46.77;94904.93;1687480;85;20955;-57
2021/06/05 10:50:04;;;;;;;8.70;4.80;;;;;;;19.63;46.85;94914.11;1657235;85;21021;-58
2021/06/05 10:53:03;;;;;;;11.38;4.42;;;;;;;19.66;46.61;94911.70;1665091;85;21062;-57
2021/06/05 10:55:45;;;;;;;11.43;5.70;;;;;;;19.64;47.60;94918.42;1687230;85;21149;-57
2021/06/05 10:58:38;;;;;;;19.05;5.22;;;;;;;19.66;47.22;94920.08;1687658;85;21111;-57
2021/06/05 11:01:09;;;;;;;15.35;6.87;;;;;;;19.67;47.60;94913.23;1687604;84;21445;-56
2021/06/05 11:03:46;;;;;;;16.95;9.10;;;;;;;19.68;47.89;94920.34;1686908;83;21071;-59
2021/06/05 11:06:20;;;;;;;17.32;6.67;;;;;;;19.69;48.00;94920.47;1680290;85;21491;-56
2021/06/05 11:08:59;;;;;;;14.35;7.25;;;;;;;19.72;47.82;94920.85;1680058;85;21199;-56
2021/06/05 11:11:45;;;;;;;16.40;7.25;;;;;;;19.77;47.95;94924.30;1680030;85;21006;-56
2021/06/05 11:14:39;;;;;;;14.07;6.90;;;;;;;19.80;47.85;94926.11;1680338;83;21415;-57
2021/06/05 11:17:21;;;;;;;21.25;8.63;;;;;;;19.84;48.00;94919.64;1680176;85;20962;-57
2021/06/05 11:19:53;;;;;;;9.80;6.12;;;;;;;19.81;48.37;94925.45;1678344;85;21585;-57
2021/06/05 11:22:27;;;;;;;24.95;10.30;;;;;;;19.75;48.87;94915.66;1678773;83;21478;-56
2021/06/05 11:25:14;;;;;;;22.02;11.25;;;;;;;19.65;50.10;94917.78;1680038;83;20990;-57
2021/06/05 11:27:50;;;;;;;20.32;9.50;;;;;;;19.57;50.57;94924.47;1680033;85;21015;-56
2021/06/05 11:30:26;;;;;;;9.55;5.45;;;;;;;19.46;52.16;94928.62;1680471;84;21080;-57
2021/06/05 11:33:02;;;;;;;16.57;5.90;;;;;;;19.34;51.35;94920.70;1680254;85;20943;-57
2021/06/05 11:35:53;;;;;;;16.97;5.70;;;;;;;19.18;51.80;94924.91;1680409;85;21153;-56
2021/06/05 11:38:25;;;;;;;13.43;6.50;;;;;;;19.04;51.78;94926.44;1680060;85;21006;-57
2021/06/05 11:41:12;;;;;;;8.35;5.15;;;;;;;18.89;52.70;94925.20;1680235;84;21373;-55
2021/06/05 11:43:48;;;;;;;19.27;6.40;;;;;;;18.78;52.14;94925.11;1659570;85;21038;-55
2021/06/05 11:46:35;;;;;;;13.18;6.42;;;;;;;18.66;52.94;94929.06;1680264;85;20950;-57
2021/06/05 11:49:04;;;;;;;11.53;6.90;;;;;;;18.60;54.04;94924.08;1680292;83;21155;-57
2021/06/05 11:51:36;;;;;;;20.55;8.43;;;;;;;18.55;54.96;94919.23;1679994;85;21458;-56